sensor_id;sensor_type;location;lat;lon;timestamp;P1;durP1;ratioP1;P2;durP2;ratioP2
15516;SDS011;7860;52.030;5.572;2023-07-24T00:04:04;5.27;;;2.64;;
15516;SDS011;7860;52.030;5.572;2023-07-24T00:04:05;5.20;;;2.70;;
15516;SDS011;7860;52.030;5.572;2023-07-24T00:04:05;5.01;;;2.57;;
15516;SDS011;7860;52.030;5.572;2023-07-24T00:04:05;4.64;;;2.50;;
15516;SDS011;7860;52.030;5.572;2023-07-24T00:04:24;4.86;;;2.54;;
15516;SDS011;7860;52.030;5.572;2023-07-24T00:05:24;4.77;;;2.49;;
15516;SDS011;7860;52.030;5.572;2023-07-24T00:06:24;5.09;;;2.55;;
15516;SDS011;7860;52.030;5.572;2023-07-24T00:07:25;5.21;;;2.67;;
15516;SDS011;7860;52.030;5.572;2023-07-24T00:08:25;6.04;;;2.90;;
15516;SDS011;7860;52.030;5.572;2023-07-24T00:09:25;5.21;;;2.80;;
15516;SDS011;7860;52.030;5.572;2023-07-24T00:10:25;4.89;;;2.96;;
15516;SDS011;7860;52.030;5.572;2023-07-24T00:11:25;4.89;;;2.67;;
15516;SDS011;7860;52.030;5.572;2023-07-24T00:12:25;5.28;;;2.85;;
15516;SDS011;7860;52.030;5.572;2023-07-24T00:13:25;5.57;;;3.09;;
15516;SDS011;7860;52.030;5.572;2023-07-24T00:14:25;4.90;;;2.74;;
15516;SDS011;7860;52.030;5.572;2023-07-24T00:15:25;5.95;;;3.06;;
15516;SDS011;7860;52.030;5.572;2023-07-24T00:16:25;4.86;;;2.76;;
15516;SDS011;7860;52.030;5.572;2023-07-24T00:17:26;5.82;;;3.07;;
15516;SDS011;7860;52.030;5.572;2023-07-24T00:18:26;5.24;;;2.92;;
15516;SDS011;7860;52.030;5.572;2023-07-24T00:19:26;6.60;;;3.08;;
15516;SDS011;7860;52.030;5.572;2023-07-24T00:20:26;5.03;;;2.89;;
15516;SDS011;7860;52.030;5.572;2023-07-24T00:21:26;5.59;;;3.12;;
15516;SDS011;7860;52.030;5.572;2023-07-24T00:22:26;5.47;;;3.08;;
15516;SDS011;7860;52.030;5.572;2023-07-24T00:23:26;5.44;;;3.02;;
15516;SDS011;7860;52.030;5.572;2023-07-24T00:24:26;5.59;;;2.75;;
15516;SDS011;7860;52.030;5.572;2023-07-24T00:25:26;6.09;;;3.27;;
15516;SDS011;7860;52.030;5.572;2023-07-24T00:26:26;5.78;;;3.07;;
15516;SDS011;7860;52.030;5.572;2023-07-24T00:27:27;5.63;;;3.10;;
15516;SDS011;7860;52.030;5.572;2023-07-24T00:28:27;6.52;;;3.44;;
15516;SDS011;7860;52.030;5.572;2023-07-24T00:29:27;5.77;;;3.33;;
15516;SDS011;7860;52.030;5.572;2023-07-24T00:30:27;6.75;;;3.32;;
15516;SDS011;7860;52.030;5.572;2023-07-24T00:31:27;5.67;;;3.37;;
15516;SDS011;7860;52.030;5.572;2023-07-24T00:32:27;5.72;;;3.31;;
15516;SDS011;7860;52.030;5.572;2023-07-24T00:33:27;6.53;;;3.35;;
15516;SDS011;7860;52.030;5.572;2023-07-24T00:34:27;5.56;;;3.16;;
15516;SDS011;7860;52.030;5.572;2023-07-24T00:35:27;5.79;;;3.26;;
15516;SDS011;7860;52.030;5.572;2023-07-24T00:36:27;6.13;;;3.36;;
15516;SDS011;7860;52.030;5.572;2023-07-24T00:37:28;5.68;;;3.44;;
15516;SDS011;7860;52.030;5.572;2023-07-24T00:38:28;6.99;;;3.51;;
15516;SDS011;7860;52.030;5.572;2023-07-24T00:39:28;6.12;;;3.52;;
15516;SDS011;7860;52.030;5.572;2023-07-24T00:40:28;6.64;;;3.57;;
15516;SDS011;7860;52.030;5.572;2023-07-24T00:41:28;6.17;;;3.63;;
15516;SDS011;7860;52.030;5.572;2023-07-24T00:42:28;6.22;;;3.37;;
15516;SDS011;7860;52.030;5.572;2023-07-24T00:43:28;5.43;;;3.23;;
15516;SDS011;7860;52.030;5.572;2023-07-24T00:44:28;5.47;;;3.38;;
15516;SDS011;7860;52.030;5.572;2023-07-24T00:45:28;5.89;;;3.49;;
15516;SDS011;7860;52.030;5.572;2023-07-24T00:46:28;6.03;;;3.37;;
15516;SDS011;7860;52.030;5.572;2023-07-24T00:47:28;6.98;;;3.62;;
15516;SDS011;7860;52.030;5.572;2023-07-24T00:48:29;5.39;;;3.04;;
15516;SDS011;7860;52.030;5.572;2023-07-24T00:49:29;5.65;;;3.29;;
15516;SDS011;7860;52.030;5.572;2023-07-24T00:50:30;5.66;;;3.14;;
15516;SDS011;7860;52.030;5.572;2023-07-24T00:51:29;5.63;;;3.29;;
15516;SDS011;7860;52.030;5.572;2023-07-24T00:52:29;5.18;;;2.95;;
15516;SDS011;7860;52.030;5.572;2023-07-24T00:53:29;5.51;;;3.26;;
15516;SDS011;7860;52.030;5.572;2023-07-24T00:54:29;5.70;;;3.24;;
15516;SDS011;7860;52.030;5.572;2023-07-24T00:55:29;5.84;;;3.10;;
15516;SDS011;7860;52.030;5.572;2023-07-24T00:56:29;6.05;;;3.19;;
15516;SDS011;7860;52.030;5.572;2023-07-24T00:57:29;5.34;;;3.17;;
15516;SDS011;7860;52.030;5.572;2023-07-24T00:58:29;5.30;;;3.13;;
15516;SDS011;7860;52.030;5.572;2023-07-24T00:59:30;5.48;;;3.25;;
15516;SDS011;7860;52.030;5.572;2023-07-24T01:00:30;6.28;;;3.26;;
15516;SDS011;7860;52.030;5.572;2023-07-24T01:01:30;5.89;;;3.26;;
15516;SDS011;7860;52.030;5.572;2023-07-24T01:02:30;5.96;;;3.39;;
15516;SDS011;7860;52.030;5.572;2023-07-24T01:03:31;6.90;;;3.12;;
15516;SDS011;7860;52.030;5.572;2023-07-24T01:04:30;6.30;;;3.19;;
15516;SDS011;7860;52.030;5.572;2023-07-24T01:05:30;5.24;;;3.13;;
15516;SDS011;7860;52.030;5.572;2023-07-24T01:06:30;4.96;;;3.07;;
15516;SDS011;7860;52.030;5.572;2023-07-24T01:07:30;5.45;;;3.14;;
15516;SDS011;7860;52.030;5.572;2023-07-24T01:08:30;6.41;;;3.08;;
15516;SDS011;7860;52.030;5.572;2023-07-24T01:09:31;5.79;;;3.01;;
15516;SDS011;7860;52.030;5.572;2023-07-24T01:10:31;4.97;;;2.80;;
15516;SDS011;7860;52.030;5.572;2023-07-24T01:11:32;5.38;;;3.11;;
15516;SDS011;7860;52.030;5.572;2023-07-24T01:12:31;5.77;;;3.19;;
15516;SDS011;7860;52.030;5.572;2023-07-24T01:13:32;5.81;;;3.24;;
15516;SDS011;7860;52.030;5.572;2023-07-24T01:14:32;5.34;;;2.99;;
15516;SDS011;7860;52.030;5.572;2023-07-24T01:15:32;5.97;;;3.05;;
15516;SDS011;7860;52.030;5.572;2023-07-24T01:16:32;6.31;;;2.95;;
15516;SDS011;7860;52.030;5.572;2023-07-24T01:17:31;5.58;;;2.94;;
15516;SDS011;7860;52.030;5.572;2023-07-24T01:18:31;5.26;;;2.92;;
15516;SDS011;7860;52.030;5.572;2023-07-24T01:19:33;6.80;;;3.15;;
15516;SDS011;7860;52.030;5.572;2023-07-24T01:20:32;5.58;;;3.06;;
15516;SDS011;7860;52.030;5.572;2023-07-24T01:21:33;5.42;;;3.05;;
15516;SDS011;7860;52.030;5.572;2023-07-24T01:22:32;6.20;;;3.22;;
15516;SDS011;7860;52.030;5.572;2023-07-24T01:23:36;5.90;;;2.98;;
15516;SDS011;7860;52.030;5.572;2023-07-24T01:24:33;5.46;;;2.94;;
15516;SDS011;7860;52.030;5.572;2023-07-24T01:25:32;5.78;;;2.97;;
15516;SDS011;7860;52.030;5.572;2023-07-24T01:26:32;5.17;;;2.90;;
15516;SDS011;7860;52.030;5.572;2023-07-24T01:27:32;5.39;;;2.81;;
15516;SDS011;7860;52.030;5.572;2023-07-24T01:28:32;6.17;;;3.18;;
15516;SDS011;7860;52.030;5.572;2023-07-24T01:29:32;5.03;;;2.78;;
15516;SDS011;7860;52.030;5.572;2023-07-24T01:30:32;5.47;;;2.82;;
15516;SDS011;7860;52.030;5.572;2023-07-24T01:31:33;4.80;;;2.73;;
15516;SDS011;7860;52.030;5.572;2023-07-24T01:32:33;4.88;;;2.64;;
15516;SDS011;7860;52.030;5.572;2023-07-24T01:33:33;5.32;;;2.76;;
15516;SDS011;7860;52.030;5.572;2023-07-24T01:34:33;6.34;;;2.61;;
15516;SDS011;7860;52.030;5.572;2023-07-24T01:35:33;5.27;;;2.68;;
15516;SDS011;7860;52.030;5.572;2023-07-24T01:36:33;5.48;;;2.77;;
15516;SDS011;7860;52.030;5.572;2023-07-24T01:37:33;4.88;;;2.51;;
15516;SDS011;7860;52.030;5.572;2023-07-24T01:38:34;4.83;;;2.59;;
15516;SDS011;7860;52.030;5.572;2023-07-24T01:39:33;6.33;;;2.78;;
15516;SDS011;7860;52.030;5.572;2023-07-24T01:40:33;5.10;;;2.75;;
15516;SDS011;7860;52.030;5.572;2023-07-24T01:41:33;5.58;;;2.86;;
15516;SDS011;7860;52.030;5.572;2023-07-24T01:42:34;5.42;;;2.66;;
15516;SDS011;7860;52.030;5.572;2023-07-24T01:43:34;5.21;;;2.73;;
15516;SDS011;7860;52.030;5.572;2023-07-24T01:44:34;5.35;;;2.80;;
15516;SDS011;7860;52.030;5.572;2023-07-24T01:45:34;5.68;;;2.93;;
15516;SDS011;7860;52.030;5.572;2023-07-24T01:46:34;5.25;;;2.90;;
15516;SDS011;7860;52.030;5.572;2023-07-24T01:47:34;5.74;;;2.82;;
15516;SDS011;7860;52.030;5.572;2023-07-24T01:48:34;4.94;;;2.69;;
15516;SDS011;7860;52.030;5.572;2023-07-24T01:49:34;6.12;;;2.99;;
15516;SDS011;7860;52.030;5.572;2023-07-24T01:50:34;6.16;;;3.13;;
15516;SDS011;7860;52.030;5.572;2023-07-24T01:51:34;5.96;;;3.12;;
15516;SDS011;7860;52.030;5.572;2023-07-24T01:52:34;6.57;;;3.16;;
15516;SDS011;7860;52.030;5.572;2023-07-24T01:53:35;5.79;;;2.86;;
15516;SDS011;7860;52.030;5.572;2023-07-24T01:54:35;6.64;;;2.85;;
15516;SDS011;7860;52.030;5.572;2023-07-24T01:55:35;5.94;;;3.08;;
15516;SDS011;7860;52.030;5.572;2023-07-24T01:56:35;5.87;;;2.90;;
15516;SDS011;7860;52.030;5.572;2023-07-24T01:57:35;6.03;;;2.86;;
15516;SDS011;7860;52.030;5.572;2023-07-24T01:58:35;6.29;;;2.74;;
15516;SDS011;7860;52.030;5.572;2023-07-24T01:59:35;6.55;;;2.88;;
15516;SDS011;7860;52.030;5.572;2023-07-24T02:00:35;5.27;;;2.56;;
15516;SDS011;7860;52.030;5.572;2023-07-24T02:01:35;5.49;;;2.64;;
15516;SDS011;7860;52.030;5.572;2023-07-24T02:02:35;6.50;;;2.61;;
15516;SDS011;7860;52.030;5.572;2023-07-24T02:03:35;5.85;;;2.58;;
15516;SDS011;7860;52.030;5.572;2023-07-24T02:04:36;6.86;;;2.53;;
15516;SDS011;7860;52.030;5.572;2023-07-24T02:05:36;5.61;;;2.70;;
15516;SDS011;7860;52.030;5.572;2023-07-24T02:06:36;5.02;;;2.30;;
15516;SDS011;7860;52.030;5.572;2023-07-24T02:07:36;4.91;;;2.36;;
15516;SDS011;7860;52.030;5.572;2023-07-24T02:08:36;5.59;;;2.47;;
15516;SDS011;7860;52.030;5.572;2023-07-24T02:09:36;4.45;;;2.30;;
15516;SDS011;7860;52.030;5.572;2023-07-24T02:10:36;5.09;;;2.19;;
15516;SDS011;7860;52.030;5.572;2023-07-24T02:11:36;5.74;;;2.48;;
15516;SDS011;7860;52.030;5.572;2023-07-24T02:12:36;5.01;;;2.30;;
15516;SDS011;7860;52.030;5.572;2023-07-24T02:13:36;5.14;;;2.56;;
15516;SDS011;7860;52.030;5.572;2023-07-24T02:14:36;5.03;;;2.34;;
15516;SDS011;7860;52.030;5.572;2023-07-24T02:15:37;5.89;;;2.51;;
15516;SDS011;7860;52.030;5.572;2023-07-24T02:16:37;5.72;;;2.52;;
15516;SDS011;7860;52.030;5.572;2023-07-24T02:17:37;4.95;;;2.31;;
15516;SDS011;7860;52.030;5.572;2023-07-24T02:18:37;4.32;;;2.21;;
15516;SDS011;7860;52.030;5.572;2023-07-24T02:19:37;5.21;;;2.57;;
15516;SDS011;7860;52.030;5.572;2023-07-24T02:20:37;6.15;;;2.46;;
15516;SDS011;7860;52.030;5.572;2023-07-24T02:21:37;5.40;;;2.44;;
15516;SDS011;7860;52.030;5.572;2023-07-24T02:22:37;5.80;;;2.59;;
15516;SDS011;7860;52.030;5.572;2023-07-24T02:23:37;6.07;;;2.72;;
15516;SDS011;7860;52.030;5.572;2023-07-24T02:24:37;5.87;;;2.56;;
15516;SDS011;7860;52.030;5.572;2023-07-24T02:25:37;6.55;;;2.62;;
15516;SDS011;7860;52.030;5.572;2023-07-24T02:26:38;6.87;;;2.73;;
15516;SDS011;7860;52.030;5.572;2023-07-24T02:27:38;5.74;;;2.78;;
15516;SDS011;7860;52.030;5.572;2023-07-24T02:28:38;6.78;;;2.83;;
15516;SDS011;7860;52.030;5.572;2023-07-24T02:29:38;6.22;;;2.72;;
15516;SDS011;7860;52.030;5.572;2023-07-24T02:30:38;6.69;;;3.15;;
15516;SDS011;7860;52.030;5.572;2023-07-24T02:31:38;6.07;;;3.06;;
15516;SDS011;7860;52.030;5.572;2023-07-24T02:32:38;6.36;;;3.07;;
15516;SDS011;7860;52.030;5.572;2023-07-24T02:33:38;6.10;;;3.01;;
15516;SDS011;7860;52.030;5.572;2023-07-24T02:34:38;6.55;;;3.28;;
15516;SDS011;7860;52.030;5.572;2023-07-24T02:35:38;7.38;;;3.48;;
15516;SDS011;7860;52.030;5.572;2023-07-24T02:36:39;6.96;;;3.58;;
15516;SDS011;7860;52.030;5.572;2023-07-24T02:37:39;6.25;;;3.16;;
15516;SDS011;7860;52.030;5.572;2023-07-24T02:38:39;6.16;;;3.27;;
15516;SDS011;7860;52.030;5.572;2023-07-24T02:39:39;7.78;;;3.66;;
15516;SDS011;7860;52.030;5.572;2023-07-24T02:40:40;8.05;;;3.47;;
15516;SDS011;7860;52.030;5.572;2023-07-24T02:41:39;6.79;;;3.32;;
15516;SDS011;7860;52.030;5.572;2023-07-24T02:42:39;6.66;;;3.49;;
15516;SDS011;7860;52.030;5.572;2023-07-24T02:43:39;6.48;;;3.46;;
15516;SDS011;7860;52.030;5.572;2023-07-24T02:44:39;6.81;;;3.61;;
15516;SDS011;7860;52.030;5.572;2023-07-24T02:45:39;6.35;;;3.25;;
15516;SDS011;7860;52.030;5.572;2023-07-24T02:46:39;6.84;;;3.73;;
15516;SDS011;7860;52.030;5.572;2023-07-24T02:47:39;6.04;;;3.54;;
15516;SDS011;7860;52.030;5.572;2023-07-24T02:48:40;7.13;;;3.63;;
15516;SDS011;7860;52.030;5.572;2023-07-24T02:49:40;7.67;;;3.57;;
15516;SDS011;7860;52.030;5.572;2023-07-24T02:50:40;6.79;;;3.70;;
15516;SDS011;7860;52.030;5.572;2023-07-24T02:51:40;7.89;;;3.82;;
15516;SDS011;7860;52.030;5.572;2023-07-24T02:52:40;7.19;;;3.55;;
15516;SDS011;7860;52.030;5.572;2023-07-24T02:53:40;6.93;;;3.56;;
15516;SDS011;7860;52.030;5.572;2023-07-24T02:54:40;6.75;;;3.43;;
15516;SDS011;7860;52.030;5.572;2023-07-24T02:55:41;8.30;;;3.91;;
15516;SDS011;7860;52.030;5.572;2023-07-24T02:56:40;6.48;;;3.48;;
15516;SDS011;7860;52.030;5.572;2023-07-24T02:57:40;7.22;;;3.76;;
15516;SDS011;7860;52.030;5.572;2023-07-24T02:58:40;7.83;;;3.70;;
15516;SDS011;7860;52.030;5.572;2023-07-24T02:59:41;7.03;;;3.94;;
15516;SDS011;7860;52.030;5.572;2023-07-24T03:00:41;7.22;;;3.84;;
15516;SDS011;7860;52.030;5.572;2023-07-24T03:01:41;8.36;;;4.09;;
15516;SDS011;7860;52.030;5.572;2023-07-24T03:02:41;6.54;;;3.77;;
15516;SDS011;7860;52.030;5.572;2023-07-24T03:03:41;7.51;;;3.85;;
15516;SDS011;7860;52.030;5.572;2023-07-24T03:04:41;7.30;;;3.71;;
15516;SDS011;7860;52.030;5.572;2023-07-24T03:05:41;7.66;;;4.00;;
15516;SDS011;7860;52.030;5.572;2023-07-24T03:06:42;7.32;;;3.81;;
15516;SDS011;7860;52.030;5.572;2023-07-24T03:07:41;7.55;;;4.07;;
15516;SDS011;7860;52.030;5.572;2023-07-24T03:08:41;6.90;;;3.77;;
15516;SDS011;7860;52.030;5.572;2023-07-24T03:09:42;7.01;;;3.61;;
15516;SDS011;7860;52.030;5.572;2023-07-24T03:10:41;8.06;;;4.05;;
15516;SDS011;7860;52.030;5.572;2023-07-24T03:11:42;6.00;;;3.39;;
15516;SDS011;7860;52.030;5.572;2023-07-24T03:12:42;7.36;;;3.69;;
15516;SDS011;7860;52.030;5.572;2023-07-24T03:13:42;8.55;;;4.25;;
15516;SDS011;7860;52.030;5.572;2023-07-24T03:14:42;8.35;;;3.94;;
15516;SDS011;7860;52.030;5.572;2023-07-24T03:15:42;6.96;;;3.97;;
15516;SDS011;7860;52.030;5.572;2023-07-24T03:16:42;8.37;;;4.15;;
15516;SDS011;7860;52.030;5.572;2023-07-24T03:17:42;6.98;;;3.94;;
15516;SDS011;7860;52.030;5.572;2023-07-24T03:18:42;9.19;;;4.51;;
15516;SDS011;7860;52.030;5.572;2023-07-24T03:19:42;6.60;;;3.74;;
15516;SDS011;7860;52.030;5.572;2023-07-24T03:20:42;7.24;;;4.03;;
15516;SDS011;7860;52.030;5.572;2023-07-24T03:21:42;6.81;;;3.90;;
15516;SDS011;7860;52.030;5.572;2023-07-24T03:22:43;6.93;;;4.09;;
15516;SDS011;7860;52.030;5.572;2023-07-24T03:23:43;8.04;;;4.24;;
15516;SDS011;7860;52.030;5.572;2023-07-24T03:24:43;7.92;;;4.26;;
15516;SDS011;7860;52.030;5.572;2023-07-24T03:25:43;8.48;;;4.70;;
15516;SDS011;7860;52.030;5.572;2023-07-24T03:26:43;7.63;;;4.41;;
15516;SDS011;7860;52.030;5.572;2023-07-24T03:27:43;7.01;;;4.07;;
15516;SDS011;7860;52.030;5.572;2023-07-24T03:28:43;7.93;;;4.39;;
15516;SDS011;7860;52.030;5.572;2023-07-24T03:29:43;8.24;;;4.40;;
15516;SDS011;7860;52.030;5.572;2023-07-24T03:30:43;9.64;;;4.32;;
15516;SDS011;7860;52.030;5.572;2023-07-24T03:31:43;8.14;;;4.27;;
15516;SDS011;7860;52.030;5.572;2023-07-24T03:32:43;8.83;;;4.37;;
15516;SDS011;7860;52.030;5.572;2023-07-24T03:33:43;7.68;;;4.39;;
15516;SDS011;7860;52.030;5.572;2023-07-24T03:34:44;9.82;;;4.26;;
15516;SDS011;7860;52.030;5.572;2023-07-24T03:35:44;8.46;;;4.20;;
15516;SDS011;7860;52.030;5.572;2023-07-24T03:36:44;7.69;;;4.33;;
15516;SDS011;7860;52.030;5.572;2023-07-24T03:37:44;8.08;;;4.33;;
15516;SDS011;7860;52.030;5.572;2023-07-24T03:38:44;7.67;;;4.04;;
15516;SDS011;7860;52.030;5.572;2023-07-24T03:39:44;7.94;;;4.47;;
15516;SDS011;7860;52.030;5.572;2023-07-24T03:40:44;7.62;;;3.99;;
15516;SDS011;7860;52.030;5.572;2023-07-24T03:41:44;7.58;;;4.44;;
15516;SDS011;7860;52.030;5.572;2023-07-24T03:42:44;7.22;;;3.94;;
15516;SDS011;7860;52.030;5.572;2023-07-24T03:43:44;7.84;;;4.27;;
15516;SDS011;7860;52.030;5.572;2023-07-24T03:44:44;8.18;;;4.49;;
15516;SDS011;7860;52.030;5.572;2023-07-24T03:45:44;7.41;;;4.22;;
15516;SDS011;7860;52.030;5.572;2023-07-24T03:46:44;8.95;;;4.44;;
15516;SDS011;7860;52.030;5.572;2023-07-24T03:47:45;7.31;;;4.49;;
15516;SDS011;7860;52.030;5.572;2023-07-24T03:48:45;7.26;;;4.22;;
15516;SDS011;7860;52.030;5.572;2023-07-24T03:49:45;8.22;;;4.56;;
15516;SDS011;7860;52.030;5.572;2023-07-24T03:50:45;8.17;;;4.31;;
15516;SDS011;7860;52.030;5.572;2023-07-24T03:51:45;7.65;;;4.42;;
15516;SDS011;7860;52.030;5.572;2023-07-24T03:52:45;8.88;;;4.78;;
15516;SDS011;7860;52.030;5.572;2023-07-24T03:53:45;7.80;;;4.43;;
15516;SDS011;7860;52.030;5.572;2023-07-24T03:54:45;7.15;;;4.14;;
15516;SDS011;7860;52.030;5.572;2023-07-24T03:55:45;8.38;;;4.52;;
15516;SDS011;7860;52.030;5.572;2023-07-24T03:56:45;7.75;;;4.51;;
15516;SDS011;7860;52.030;5.572;2023-07-24T03:57:45;7.75;;;4.35;;
15516;SDS011;7860;52.030;5.572;2023-07-24T03:58:46;7.26;;;4.13;;
15516;SDS011;7860;52.030;5.572;2023-07-24T03:59:46;7.43;;;4.44;;
15516;SDS011;7860;52.030;5.572;2023-07-24T04:00:46;8.72;;;4.44;;
15516;SDS011;7860;52.030;5.572;2023-07-24T04:01:46;7.80;;;4.69;;
15516;SDS011;7860;52.030;5.572;2023-07-24T04:02:46;7.83;;;4.58;;
15516;SDS011;7860;52.030;5.572;2023-07-24T04:03:46;8.06;;;4.24;;
15516;SDS011;7860;52.030;5.572;2023-07-24T04:04:47;8.18;;;4.47;;
15516;SDS011;7860;52.030;5.572;2023-07-24T04:05:46;7.41;;;4.24;;
15516;SDS011;7860;52.030;5.572;2023-07-24T04:06:46;8.16;;;4.72;;
15516;SDS011;7860;52.030;5.572;2023-07-24T04:07:46;7.73;;;4.64;;
15516;SDS011;7860;52.030;5.572;2023-07-24T04:08:46;7.98;;;4.77;;
15516;SDS011;7860;52.030;5.572;2023-07-24T04:09:47;8.04;;;4.46;;
15516;SDS011;7860;52.030;5.572;2023-07-24T04:10:47;8.38;;;4.58;;
15516;SDS011;7860;52.030;5.572;2023-07-24T04:11:47;8.06;;;4.79;;
15516;SDS011;7860;52.030;5.572;2023-07-24T04:12:47;8.02;;;4.81;;
15516;SDS011;7860;52.030;5.572;2023-07-24T04:13:47;9.81;;;4.91;;
15516;SDS011;7860;52.030;5.572;2023-07-24T04:14:47;9.28;;;4.59;;
15516;SDS011;7860;52.030;5.572;2023-07-24T04:15:47;8.27;;;4.77;;
15516;SDS011;7860;52.030;5.572;2023-07-24T04:16:47;8.56;;;4.61;;
15516;SDS011;7860;52.030;5.572;2023-07-24T04:17:47;8.21;;;4.74;;
15516;SDS011;7860;52.030;5.572;2023-07-24T04:18:47;9.94;;;4.68;;
15516;SDS011;7860;52.030;5.572;2023-07-24T04:19:47;8.31;;;4.49;;
15516;SDS011;7860;52.030;5.572;2023-07-24T04:20:47;7.19;;;4.47;;
15516;SDS011;7860;52.030;5.572;2023-07-24T04:21:48;9.12;;;4.91;;
15516;SDS011;7860;52.030;5.572;2023-07-24T04:22:48;8.75;;;4.70;;
15516;SDS011;7860;52.030;5.572;2023-07-24T04:23:48;8.03;;;4.72;;
15516;SDS011;7860;52.030;5.572;2023-07-24T04:24:48;8.08;;;4.84;;
15516;SDS011;7860;52.030;5.572;2023-07-24T04:25:49;8.45;;;4.77;;
15516;SDS011;7860;52.030;5.572;2023-07-24T04:26:48;8.03;;;4.77;;
15516;SDS011;7860;52.030;5.572;2023-07-24T04:27:48;9.59;;;4.79;;
15516;SDS011;7860;52.030;5.572;2023-07-24T04:28:48;8.00;;;4.55;;
15516;SDS011;7860;52.030;5.572;2023-07-24T04:29:48;8.42;;;4.54;;
15516;SDS011;7860;52.030;5.572;2023-07-24T04:30:48;8.58;;;5.05;;
15516;SDS011;7860;52.030;5.572;2023-07-24T04:31:48;9.40;;;4.71;;
15516;SDS011;7860;52.030;5.572;2023-07-24T04:32:48;8.56;;;4.93;;
15516;SDS011;7860;52.030;5.572;2023-07-24T04:33:49;8.32;;;4.68;;
15516;SDS011;7860;52.030;5.572;2023-07-24T04:34:49;7.59;;;4.52;;
15516;SDS011;7860;52.030;5.572;2023-07-24T04:35:49;7.90;;;4.63;;
15516;SDS011;7860;52.030;5.572;2023-07-24T04:36:49;8.97;;;4.71;;
15516;SDS011;7860;52.030;5.572;2023-07-24T04:37:49;7.98;;;4.54;;
15516;SDS011;7860;52.030;5.572;2023-07-24T04:38:49;8.44;;;4.79;;
15516;SDS011;7860;52.030;5.572;2023-07-24T04:39:49;9.23;;;4.98;;
15516;SDS011;7860;52.030;5.572;2023-07-24T04:40:49;10.99;;;5.07;;
15516;SDS011;7860;52.030;5.572;2023-07-24T04:41:49;8.42;;;4.91;;
15516;SDS011;7860;52.030;5.572;2023-07-24T04:42:49;8.86;;;4.77;;
15516;SDS011;7860;52.030;5.572;2023-07-24T04:43:49;7.76;;;4.82;;
15516;SDS011;7860;52.030;5.572;2023-07-24T04:44:49;8.57;;;4.70;;
15516;SDS011;7860;52.030;5.572;2023-07-24T04:45:50;8.40;;;4.55;;
15516;SDS011;7860;52.030;5.572;2023-07-24T04:46:50;9.05;;;5.01;;
15516;SDS011;7860;52.030;5.572;2023-07-24T04:47:50;9.83;;;4.79;;
15516;SDS011;7860;52.030;5.572;2023-07-24T04:48:50;8.12;;;4.76;;
15516;SDS011;7860;52.030;5.572;2023-07-24T04:49:50;8.87;;;4.91;;
15516;SDS011;7860;52.030;5.572;2023-07-24T04:50:52;9.60;;;5.62;;
15516;SDS011;7860;52.030;5.572;2023-07-24T04:51:50;8.06;;;4.89;;
15516;SDS011;7860;52.030;5.572;2023-07-24T04:52:50;8.88;;;4.85;;
15516;SDS011;7860;52.030;5.572;2023-07-24T04:53:50;8.90;;;4.71;;
15516;SDS011;7860;52.030;5.572;2023-07-24T04:54:50;8.97;;;5.13;;
15516;SDS011;7860;52.030;5.572;2023-07-24T04:55:50;9.31;;;4.89;;
15516;SDS011;7860;52.030;5.572;2023-07-24T04:56:51;8.51;;;5.17;;
15516;SDS011;7860;52.030;5.572;2023-07-24T04:57:51;8.45;;;4.93;;
15516;SDS011;7860;52.030;5.572;2023-07-24T04:58:51;8.64;;;4.93;;
15516;SDS011;7860;52.030;5.572;2023-07-24T04:59:51;9.24;;;5.23;;
15516;SDS011;7860;52.030;5.572;2023-07-24T05:00:51;10.08;;;5.71;;
15516;SDS011;7860;52.030;5.572;2023-07-24T05:01:51;9.67;;;5.43;;
15516;SDS011;7860;52.030;5.572;2023-07-24T05:02:51;9.61;;;4.92;;
15516;SDS011;7860;52.030;5.572;2023-07-24T05:03:51;9.18;;;5.10;;
15516;SDS011;7860;52.030;5.572;2023-07-24T05:04:51;9.02;;;5.29;;
15516;SDS011;7860;52.030;5.572;2023-07-24T05:05:53;9.18;;;5.37;;
15516;SDS011;7860;52.030;5.572;2023-07-24T05:06:51;9.76;;;5.23;;
15516;SDS011;7860;52.030;5.572;2023-07-24T05:07:51;9.21;;;5.26;;
15516;SDS011;7860;52.030;5.572;2023-07-24T05:08:52;8.70;;;5.33;;
15516;SDS011;7860;52.030;5.572;2023-07-24T05:09:52;9.44;;;5.61;;
15516;SDS011;7860;52.030;5.572;2023-07-24T05:10:53;9.47;;;5.59;;
15516;SDS011;7860;52.030;5.572;2023-07-24T05:11:52;9.91;;;5.45;;
15516;SDS011;7860;52.030;5.572;2023-07-24T05:12:52;11.26;;;5.86;;
15516;SDS011;7860;52.030;5.572;2023-07-24T05:13:52;10.09;;;5.96;;
15516;SDS011;7860;52.030;5.572;2023-07-24T05:14:52;9.87;;;5.56;;
15516;SDS011;7860;52.030;5.572;2023-07-24T05:15:52;10.63;;;5.64;;
15516;SDS011;7860;52.030;5.572;2023-07-24T05:16:52;9.94;;;5.62;;
15516;SDS011;7860;52.030;5.572;2023-07-24T05:17:52;10.66;;;5.59;;
15516;SDS011;7860;52.030;5.572;2023-07-24T05:18:52;9.99;;;5.70;;
15516;SDS011;7860;52.030;5.572;2023-07-24T05:19:52;10.76;;;5.91;;
15516;SDS011;7860;52.030;5.572;2023-07-24T05:20:53;9.23;;;5.51;;
15516;SDS011;7860;52.030;5.572;2023-07-24T05:21:53;9.63;;;5.25;;
15516;SDS011;7860;52.030;5.572;2023-07-24T05:22:53;8.84;;;5.37;;
15516;SDS011;7860;52.030;5.572;2023-07-24T05:23:53;9.22;;;5.48;;
15516;SDS011;7860;52.030;5.572;2023-07-24T05:24:53;9.32;;;5.53;;
15516;SDS011;7860;52.030;5.572;2023-07-24T05:25:57;8.70;;;5.42;;
15516;SDS011;7860;52.030;5.572;2023-07-24T05:26:53;9.24;;;5.38;;
15516;SDS011;7860;52.030;5.572;2023-07-24T05:27:53;9.29;;;5.52;;
15516;SDS011;7860;52.030;5.572;2023-07-24T05:28:53;8.67;;;5.38;;
15516;SDS011;7860;52.030;5.572;2023-07-24T05:29:53;9.89;;;5.73;;
15516;SDS011;7860;52.030;5.572;2023-07-24T05:30:54;9.21;;;5.56;;
15516;SDS011;7860;52.030;5.572;2023-07-24T05:31:54;9.81;;;5.27;;
15516;SDS011;7860;52.030;5.572;2023-07-24T05:32:54;9.51;;;5.41;;
15516;SDS011;7860;52.030;5.572;2023-07-24T05:33:54;8.69;;;5.08;;
15516;SDS011;7860;52.030;5.572;2023-07-24T05:34:54;9.41;;;5.43;;
15516;SDS011;7860;52.030;5.572;2023-07-24T05:35:57;10.15;;;5.64;;
15516;SDS011;7860;52.030;5.572;2023-07-24T05:36:54;9.54;;;5.47;;
15516;SDS011;7860;52.030;5.572;2023-07-24T05:37:54;9.80;;;5.75;;
15516;SDS011;7860;52.030;5.572;2023-07-24T05:38:54;9.94;;;5.56;;
15516;SDS011;7860;52.030;5.572;2023-07-24T05:39:54;9.29;;;5.42;;
15516;SDS011;7860;52.030;5.572;2023-07-24T05:40:55;9.10;;;5.51;;
15516;SDS011;7860;52.030;5.572;2023-07-24T05:41:54;9.96;;;5.77;;
15516;SDS011;7860;52.030;5.572;2023-07-24T05:42:55;9.97;;;5.90;;
15516;SDS011;7860;52.030;5.572;2023-07-24T05:43:55;9.95;;;5.51;;
15516;SDS011;7860;52.030;5.572;2023-07-24T05:44:55;8.72;;;5.44;;
15516;SDS011;7860;52.030;5.572;2023-07-24T05:45:55;7.93;;;5.00;;
15516;SDS011;7860;52.030;5.572;2023-07-24T05:46:55;10.09;;;5.43;;
15516;SDS011;7860;52.030;5.572;2023-07-24T05:47:55;9.18;;;5.44;;
15516;SDS011;7860;52.030;5.572;2023-07-24T05:48:55;10.82;;;5.52;;
15516;SDS011;7860;52.030;5.572;2023-07-24T05:49:55;9.28;;;5.46;;
15516;SDS011;7860;52.030;5.572;2023-07-24T05:50:55;9.26;;;5.42;;
15516;SDS011;7860;52.030;5.572;2023-07-24T05:51:55;10.96;;;5.76;;
15516;SDS011;7860;52.030;5.572;2023-07-24T05:52:56;11.58;;;5.50;;
15516;SDS011;7860;52.030;5.572;2023-07-24T05:53:56;9.58;;;5.68;;
15516;SDS011;7860;52.030;5.572;2023-07-24T05:54:56;10.61;;;6.01;;
15516;SDS011;7860;52.030;5.572;2023-07-24T05:55:57;9.33;;;5.74;;
15516;SDS011;7860;52.030;5.572;2023-07-24T05:56:56;9.72;;;5.36;;
15516;SDS011;7860;52.030;5.572;2023-07-24T05:57:56;10.61;;;5.45;;
15516;SDS011;7860;52.030;5.572;2023-07-24T05:58:56;10.02;;;5.65;;
15516;SDS011;7860;52.030;5.572;2023-07-24T05:59:56;10.19;;;5.74;;
15516;SDS011;7860;52.030;5.572;2023-07-24T06:00:56;9.14;;;5.59;;
15516;SDS011;7860;52.030;5.572;2023-07-24T06:01:56;12.31;;;5.54;;
15516;SDS011;7860;52.030;5.572;2023-07-24T06:02:56;10.09;;;5.51;;
15516;SDS011;7860;52.030;5.572;2023-07-24T06:03:57;11.71;;;5.94;;
15516;SDS011;7860;52.030;5.572;2023-07-24T06:04:57;10.77;;;5.62;;
15516;SDS011;7860;52.030;5.572;2023-07-24T06:05:57;10.45;;;5.77;;
15516;SDS011;7860;52.030;5.572;2023-07-24T06:06:57;11.03;;;5.75;;